sensor_id;sensor_type;location;lat;lon;timestamp;P1;durP1;ratioP1;P2;durP2;ratioP2
22080;SDS011;11207;59.512;18.050;2023-04-24T00:00:53;3.60;;;3.30;;
22080;SDS011;11207;59.512;18.050;2023-04-24T00:03:22;3.17;;;2.97;;
22080;SDS011;11207;59.512;18.050;2023-04-24T00:05:49;3.23;;;3.00;;
22080;SDS011;11207;59.512;18.050;2023-04-24T00:08:16;2.90;;;2.70;;
22080;SDS011;11207;59.512;18.050;2023-04-24T00:10:42;3.07;;;2.87;;
22080;SDS011;11207;59.512;18.050;2023-04-24T00:13:07;2.60;;;2.50;;
22080;SDS011;11207;59.512;18.050;2023-04-24T00:15:33;2.70;;;2.50;;
22080;SDS011;11207;59.512;18.050;2023-04-24T00:17:59;2.77;;;2.60;;
22080;SDS011;11207;59.512;18.050;2023-04-24T00:20:26;2.80;;;2.63;;
22080;SDS011;11207;59.512;18.050;2023-04-24T00:22:54;2.70;;;2.50;;
22080;SDS011;11207;59.512;18.050;2023-04-24T00:25:20;2.90;;;2.70;;
22080;SDS011;11207;59.512;18.050;2023-04-24T00:27:45;2.60;;;2.40;;
22080;SDS011;11207;59.512;18.050;2023-04-24T00:30:11;2.47;;;2.37;;
22080;SDS011;11207;59.512;18.050;2023-04-24T00:32:37;2.57;;;2.47;;
22080;SDS011;11207;59.512;18.050;2023-04-24T00:35:02;2.60;;;2.50;;
22080;SDS011;11207;59.512;18.050;2023-04-24T00:37:29;3.70;;;2.60;;
22080;SDS011;11207;59.512;18.050;2023-04-24T00:39:54;3.30;;;2.97;;
22080;SDS011;11207;59.512;18.050;2023-04-24T00:42:20;2.50;;;2.40;;
22080;SDS011;11207;59.512;18.050;2023-04-24T00:44:46;3.33;;;2.43;;
22080;SDS011;11207;59.512;18.050;2023-04-24T00:47:12;3.10;;;2.80;;
22080;SDS011;11207;59.512;18.050;2023-04-24T00:49:38;4.53;;;2.97;;
22080;SDS011;11207;59.512;18.050;2023-04-24T00:52:03;4.93;;;2.90;;
22080;SDS011;11207;59.512;18.050;2023-04-24T00:54:32;3.17;;;2.93;;
22080;SDS011;11207;59.512;18.050;2023-04-24T00:56:58;3.30;;;2.83;;
22080;SDS011;11207;59.512;18.050;2023-04-24T00:59:23;3.20;;;3.00;;
22080;SDS011;11207;59.512;18.050;2023-04-24T01:01:49;2.90;;;2.70;;
22080;SDS011;11207;59.512;18.050;2023-04-24T01:04:16;2.80;;;2.60;;
22080;SDS011;11207;59.512;18.050;2023-04-24T01:06:43;2.90;;;2.70;;
22080;SDS011;11207;59.512;18.050;2023-04-24T01:09:10;3.47;;;2.47;;
22080;SDS011;11207;59.512;18.050;2023-04-24T01:11:37;3.03;;;2.77;;
22080;SDS011;11207;59.512;18.050;2023-04-24T01:14:02;3.50;;;2.90;;
22080;SDS011;11207;59.512;18.050;2023-04-24T01:16:28;2.90;;;2.60;;
22080;SDS011;11207;59.512;18.050;2023-04-24T01:18:54;3.47;;;2.87;;
22080;SDS011;11207;59.512;18.050;2023-04-24T01:21:20;4.07;;;2.80;;
22080;SDS011;11207;59.512;18.050;2023-04-24T01:23:46;2.83;;;2.60;;
22080;SDS011;11207;59.512;18.050;2023-04-24T01:26:13;3.10;;;2.90;;
22080;SDS011;11207;59.512;18.050;2023-04-24T01:28:41;4.27;;;2.80;;
22080;SDS011;11207;59.512;18.050;2023-04-24T01:31:07;3.67;;;2.83;;
22080;SDS011;11207;59.512;18.050;2023-04-24T01:33:33;4.10;;;3.00;;
22080;SDS011;11207;59.512;18.050;2023-04-24T01:35:58;3.37;;;3.00;;
22080;SDS011;11207;59.512;18.050;2023-04-24T01:38:24;4.03;;;2.90;;
22080;SDS011;11207;59.512;18.050;2023-04-24T01:40:50;3.70;;;3.00;;
22080;SDS011;11207;59.512;18.050;2023-04-24T01:43:16;3.37;;;2.80;;
22080;SDS011;11207;59.512;18.050;2023-04-24T01:45:42;4.03;;;3.33;;
22080;SDS011;11207;59.512;18.050;2023-04-24T01:48:08;3.17;;;2.90;;
22080;SDS011;11207;59.512;18.050;2023-04-24T01:50:34;3.40;;;2.90;;
22080;SDS011;11207;59.512;18.050;2023-04-24T01:53:00;3.23;;;2.73;;
22080;SDS011;11207;59.512;18.050;2023-04-24T01:55:25;3.30;;;3.00;;
22080;SDS011;11207;59.512;18.050;2023-04-24T01:57:52;4.07;;;3.20;;
22080;SDS011;11207;59.512;18.050;2023-04-24T02:00:20;3.60;;;3.30;;
22080;SDS011;11207;59.512;18.050;2023-04-24T02:02:46;3.30;;;3.00;;
22080;SDS011;11207;59.512;18.050;2023-04-24T02:05:12;5.13;;;3.40;;
22080;SDS011;11207;59.512;18.050;2023-04-24T02:07:37;3.70;;;3.17;;
22080;SDS011;11207;59.512;18.050;2023-04-24T02:10:03;5.17;;;3.10;;
22080;SDS011;11207;59.512;18.050;2023-04-24T02:12:29;3.20;;;2.90;;
22080;SDS011;11207;59.512;18.050;2023-04-24T02:14:55;3.13;;;2.93;;
22080;SDS011;11207;59.512;18.050;2023-04-24T02:17:21;3.43;;;3.10;;
22080;SDS011;11207;59.512;18.050;2023-04-24T02:19:47;4.10;;;3.23;;
22080;SDS011;11207;59.512;18.050;2023-04-24T02:22:13;6.43;;;3.30;;
22080;SDS011;11207;59.512;18.050;2023-04-24T02:24:39;5.37;;;3.40;;
22080;SDS011;11207;59.512;18.050;2023-04-24T02:27:05;4.13;;;3.37;;
22080;SDS011;11207;59.512;18.050;2023-04-24T02:29:31;6.60;;;3.27;;
22080;SDS011;11207;59.512;18.050;2023-04-24T02:31:57;4.27;;;3.40;;
22080;SDS011;11207;59.512;18.050;2023-04-24T02:34:22;5.63;;;3.73;;
22080;SDS011;11207;59.512;18.050;2023-04-24T02:36:48;4.43;;;3.23;;
22080;SDS011;11207;59.512;18.050;2023-04-24T02:39:14;4.13;;;3.10;;
22080;SDS011;11207;59.512;18.050;2023-04-24T02:41:41;4.23;;;3.50;;
22080;SDS011;11207;59.512;18.050;2023-04-24T02:44:07;5.87;;;3.60;;
22080;SDS011;11207;59.512;18.050;2023-04-24T02:46:33;4.13;;;3.37;;
22080;SDS011;11207;59.512;18.050;2023-04-24T02:48:59;4.10;;;3.30;;
22080;SDS011;11207;59.512;18.050;2023-04-24T02:51:24;4.30;;;3.30;;
22080;SDS011;11207;59.512;18.050;2023-04-24T02:53:50;3.20;;;3.00;;
22080;SDS011;11207;59.512;18.050;2023-04-24T02:56:16;4.83;;;3.37;;
22080;SDS011;11207;59.512;18.050;2023-04-24T02:58:41;3.97;;;3.30;;
22080;SDS011;11207;59.512;18.050;2023-04-24T03:01:07;5.27;;;3.30;;
22080;SDS011;11207;59.512;18.050;2023-04-24T03:03:35;4.83;;;3.00;;
22080;SDS011;11207;59.512;18.050;2023-04-24T03:06:01;4.17;;;2.90;;
22080;SDS011;11207;59.512;18.050;2023-04-24T03:08:26;3.87;;;2.87;;
22080;SDS011;11207;59.512;18.050;2023-04-24T03:10:52;3.97;;;3.27;;
22080;SDS011;11207;59.512;18.050;2023-04-24T03:13:17;3.53;;;3.10;;
22080;SDS011;11207;59.512;18.050;2023-04-24T03:15:43;4.20;;;2.97;;
22080;SDS011;11207;59.512;18.050;2023-04-24T03:18:10;3.23;;;2.90;;
22080;SDS011;11207;59.512;18.050;2023-04-24T03:20:35;3.00;;;2.67;;
22080;SDS011;11207;59.512;18.050;2023-04-24T03:23:02;4.03;;;2.90;;
22080;SDS011;11207;59.512;18.050;2023-04-24T03:25:28;3.47;;;2.97;;
22080;SDS011;11207;59.512;18.050;2023-04-24T03:27:53;5.00;;;3.17;;
22080;SDS011;11207;59.512;18.050;2023-04-24T03:30:20;3.37;;;2.73;;
22080;SDS011;11207;59.512;18.050;2023-04-24T03:32:45;4.20;;;2.73;;
22080;SDS011;11207;59.512;18.050;2023-04-24T03:35:11;3.20;;;2.60;;
22080;SDS011;11207;59.512;18.050;2023-04-24T03:37:36;4.10;;;3.00;;
22080;SDS011;11207;59.512;18.050;2023-04-24T03:40:02;2.60;;;2.40;;
22080;SDS011;11207;59.512;18.050;2023-04-24T03:42:28;3.33;;;2.80;;
22080;SDS011;11207;59.512;18.050;2023-04-24T03:44:53;3.43;;;3.00;;
22080;SDS011;11207;59.512;18.050;2023-04-24T03:47:19;4.17;;;2.80;;
22080;SDS011;11207;59.512;18.050;2023-04-24T03:49:45;5.90;;;3.50;;
22080;SDS011;11207;59.512;18.050;2023-04-24T03:52:10;4.77;;;3.20;;
22080;SDS011;11207;59.512;18.050;2023-04-24T03:54:37;3.40;;;3.10;;
22080;SDS011;11207;59.512;18.050;2023-04-24T03:57:03;3.47;;;3.10;;
22080;SDS011;11207;59.512;18.050;2023-04-24T03:59:29;3.77;;;3.20;;
22080;SDS011;11207;59.512;18.050;2023-04-24T04:01:55;3.50;;;3.00;;
22080;SDS011;11207;59.512;18.050;2023-04-24T04:04:21;4.17;;;3.27;;
22080;SDS011;11207;59.512;18.050;2023-04-24T04:06:46;4.80;;;3.43;;
22080;SDS011;11207;59.512;18.050;2023-04-24T04:09:12;4.47;;;3.57;;
22080;SDS011;11207;59.512;18.050;2023-04-24T04:11:37;5.13;;;3.60;;
22080;SDS011;11207;59.512;18.050;2023-04-24T04:14:03;3.70;;;3.27;;
22080;SDS011;11207;59.512;18.050;2023-04-24T04:16:29;3.83;;;3.40;;
22080;SDS011;11207;59.512;18.050;2023-04-24T04:18:55;3.53;;;3.23;;
22080;SDS011;11207;59.512;18.050;2023-04-24T04:21:20;4.13;;;3.73;;
22080;SDS011;11207;59.512;18.050;2023-04-24T04:23:46;5.00;;;3.77;;
22080;SDS011;11207;59.512;18.050;2023-04-24T04:26:13;3.87;;;3.20;;
22080;SDS011;11207;59.512;18.050;2023-04-24T04:28:38;3.30;;;3.00;;
22080;SDS011;11207;59.512;18.050;2023-04-24T04:31:04;4.97;;;3.33;;
22080;SDS011;11207;59.512;18.050;2023-04-24T04:33:30;3.27;;;3.00;;
22080;SDS011;11207;59.512;18.050;2023-04-24T04:35:56;4.03;;;3.40;;
22080;SDS011;11207;59.512;18.050;2023-04-24T04:38:25;3.57;;;3.10;;
22080;SDS011;11207;59.512;18.050;2023-04-24T04:40:51;5.57;;;3.23;;
22080;SDS011;11207;59.512;18.050;2023-04-24T04:43:17;4.23;;;3.30;;
22080;SDS011;11207;59.512;18.050;2023-04-24T04:45:42;4.07;;;3.20;;
22080;SDS011;11207;59.512;18.050;2023-04-24T04:48:08;4.53;;;3.43;;
22080;SDS011;11207;59.512;18.050;2023-04-24T04:50:37;4.70;;;3.70;;
22080;SDS011;11207;59.512;18.050;2023-04-24T04:53:03;4.87;;;3.97;;
22080;SDS011;11207;59.512;18.050;2023-04-24T04:55:28;5.00;;;3.53;;
22080;SDS011;11207;59.512;18.050;2023-04-24T04:57:54;5.13;;;3.37;;
22080;SDS011;11207;59.512;18.050;2023-04-24T05:00:22;4.07;;;3.50;;
22080;SDS011;11207;59.512;18.050;2023-04-24T05:02:50;4.47;;;3.40;;
22080;SDS011;11207;59.512;18.050;2023-04-24T05:05:16;4.63;;;3.60;;
22080;SDS011;11207;59.512;18.050;2023-04-24T05:07:42;4.83;;;3.93;;
22080;SDS011;11207;59.512;18.050;2023-04-24T05:10:08;3.73;;;3.20;;
22080;SDS011;11207;59.512;18.050;2023-04-24T05:12:34;4.17;;;3.30;;
22080;SDS011;11207;59.512;18.050;2023-04-24T05:15:00;3.50;;;3.20;;
22080;SDS011;11207;59.512;18.050;2023-04-24T05:17:25;5.10;;;3.47;;
22080;SDS011;11207;59.512;18.050;2023-04-24T05:19:51;4.43;;;3.40;;
22080;SDS011;11207;59.512;18.050;2023-04-24T05:22:17;3.97;;;3.57;;
22080;SDS011;11207;59.512;18.050;2023-04-24T05:24:45;4.50;;;3.40;;
22080;SDS011;11207;59.512;18.050;2023-04-24T05:27:11;3.77;;;3.37;;
22080;SDS011;11207;59.512;18.050;2023-04-24T05:29:40;4.00;;;3.60;;
22080;SDS011;11207;59.512;18.050;2023-04-24T05:32:06;4.10;;;3.70;;
22080;SDS011;11207;59.512;18.050;2023-04-24T05:34:34;4.50;;;3.63;;
22080;SDS011;11207;59.512;18.050;2023-04-24T05:37:00;4.40;;;3.50;;
22080;SDS011;11207;59.512;18.050;2023-04-24T05:39:26;5.23;;;4.20;;
22080;SDS011;11207;59.512;18.050;2023-04-24T05:41:52;4.17;;;3.67;;
22080;SDS011;11207;59.512;18.050;2023-04-24T05:44:17;4.67;;;3.70;;
22080;SDS011;11207;59.512;18.050;2023-04-24T05:46:43;6.97;;;3.93;;
22080;SDS011;11207;59.512;18.050;2023-04-24T05:49:09;6.47;;;3.83;;
22080;SDS011;11207;59.512;18.050;2023-04-24T05:51:34;4.63;;;3.67;;
22080;SDS011;11207;59.512;18.050;2023-04-24T05:54:00;4.57;;;3.77;;
22080;SDS011;11207;59.512;18.050;2023-04-24T05:56:26;4.77;;;3.80;;
22080;SDS011;11207;59.512;18.050;2023-04-24T05:58:52;4.30;;;3.73;;
22080;SDS011;11207;59.512;18.050;2023-04-24T06:01:18;4.27;;;3.73;;
22080;SDS011;11207;59.512;18.050;2023-04-24T06:03:44;3.83;;;3.50;;
22080;SDS011;11207;59.512;18.050;2023-04-24T06:06:10;3.43;;;3.13;;
22080;SDS011;11207;59.512;18.050;2023-04-24T06:08:35;4.93;;;3.80;;
22080;SDS011;11207;59.512;18.050;2023-04-24T06:11:01;4.47;;;3.73;;
22080;SDS011;11207;59.512;18.050;2023-04-24T06:13:27;3.80;;;3.50;;
22080;SDS011;11207;59.512;18.050;2023-04-24T06:15:53;4.53;;;4.07;;
22080;SDS011;11207;59.512;18.050;2023-04-24T06:18:18;5.30;;;4.27;;
22080;SDS011;11207;59.512;18.050;2023-04-24T06:20:45;5.63;;;3.90;;
22080;SDS011;11207;59.512;18.050;2023-04-24T06:23:12;4.10;;;3.70;;
22080;SDS011;11207;59.512;18.050;2023-04-24T06:25:38;4.53;;;3.53;;
22080;SDS011;11207;59.512;18.050;2023-04-24T06:28:03;4.97;;;3.53;;
22080;SDS011;11207;59.512;18.050;2023-04-24T06:30:30;3.60;;;3.30;;
22080;SDS011;11207;59.512;18.050;2023-04-24T06:32:55;3.90;;;3.43;;
22080;SDS011;11207;59.512;18.050;2023-04-24T06:35:21;4.17;;;3.40;;
22080;SDS011;11207;59.512;18.050;2023-04-24T06:37:47;3.30;;;3.10;;
22080;SDS011;11207;59.512;18.050;2023-04-24T06:40:12;3.43;;;3.13;;
22080;SDS011;11207;59.512;18.050;2023-04-24T06:42:38;4.73;;;3.10;;
22080;SDS011;11207;59.512;18.050;2023-04-24T06:45:04;3.67;;;3.37;;
22080;SDS011;11207;59.512;18.050;2023-04-24T06:47:30;3.30;;;3.00;;
22080;SDS011;11207;59.512;18.050;2023-04-24T06:49:56;3.23;;;3.03;;
22080;SDS011;11207;59.512;18.050;2023-04-24T06:52:22;3.53;;;3.23;;
22080;SDS011;11207;59.512;18.050;2023-04-24T06:54:47;3.67;;;3.20;;
22080;SDS011;11207;59.512;18.050;2023-04-24T06:57:13;4.33;;;3.20;;
22080;SDS011;11207;59.512;18.050;2023-04-24T06:59:39;3.10;;;2.90;;
22080;SDS011;11207;59.512;18.050;2023-04-24T07:02:04;3.90;;;3.60;;
22080;SDS011;11207;59.512;18.050;2023-04-24T07:04:30;3.33;;;3.03;;
22080;SDS011;11207;59.512;18.050;2023-04-24T07:06:56;3.87;;;3.57;;
22080;SDS011;11207;59.512;18.050;2023-04-24T07:09:23;4.03;;;3.63;;
22080;SDS011;11207;59.512;18.050;2023-04-24T07:11:50;3.63;;;3.33;;
22080;SDS011;11207;59.512;18.050;2023-04-24T07:14:17;3.97;;;3.67;;
22080;SDS011;11207;59.512;18.050;2023-04-24T07:16:42;4.93;;;3.53;;
22080;SDS011;11207;59.512;18.050;2023-04-24T07:19:08;3.77;;;3.47;;
22080;SDS011;11207;59.512;18.050;2023-04-24T07:21:34;3.93;;;3.63;;
22080;SDS011;11207;59.512;18.050;2023-04-24T07:24:01;4.03;;;3.63;;
22080;SDS011;11207;59.512;18.050;2023-04-24T07:26:28;3.70;;;3.40;;
22080;SDS011;11207;59.512;18.050;2023-04-24T07:28:55;6.03;;;3.77;;
22080;SDS011;11207;59.512;18.050;2023-04-24T07:31:21;6.77;;;3.90;;
22080;SDS011;11207;59.512;18.050;2023-04-24T07:33:47;4.67;;;4.00;;
22080;SDS011;11207;59.512;18.050;2023-04-24T07:36:13;6.40;;;4.40;;
22080;SDS011;11207;59.512;18.050;2023-04-24T07:38:43;3.93;;;3.63;;
22080;SDS011;11207;59.512;18.050;2023-04-24T07:41:12;3.97;;;3.67;;
22080;SDS011;11207;59.512;18.050;2023-04-24T07:43:38;5.53;;;4.90;;
22080;SDS011;11207;59.512;18.050;2023-04-24T07:46:05;4.57;;;4.17;;
22080;SDS011;11207;59.512;18.050;2023-04-24T07:48:31;5.73;;;4.33;;
22080;SDS011;11207;59.512;18.050;2023-04-24T07:50:57;4.07;;;3.77;;
22080;SDS011;11207;59.512;18.050;2023-04-24T07:53:22;4.70;;;4.30;;
22080;SDS011;11207;59.512;18.050;2023-04-24T07:55:48;4.27;;;3.87;;
22080;SDS011;11207;59.512;18.050;2023-04-24T07:58:14;5.17;;;3.77;;
22080;SDS011;11207;59.512;18.050;2023-04-24T08:00:40;4.43;;;4.00;;
22080;SDS011;11207;59.512;18.050;2023-04-24T08:03:05;5.53;;;3.70;;
22080;SDS011;11207;59.512;18.050;2023-04-24T08:05:31;4.00;;;3.60;;
22080;SDS011;11207;59.512;18.050;2023-04-24T08:07:56;4.40;;;4.00;;
22080;SDS011;11207;59.512;18.050;2023-04-24T08:10:23;4.27;;;3.67;;
22080;SDS011;11207;59.512;18.050;2023-04-24T08:12:49;3.90;;;3.60;;
22080;SDS011;11207;59.512;18.050;2023-04-24T08:15:15;4.23;;;3.83;;
22080;SDS011;11207;59.512;18.050;2023-04-24T08:17:41;4.00;;;3.60;;
22080;SDS011;11207;59.512;18.050;2023-04-24T08:20:08;3.83;;;3.53;;
22080;SDS011;11207;59.512;18.050;2023-04-24T08:22:41;5.03;;;3.50;;
22080;SDS011;11207;59.512;18.050;2023-04-24T08:25:08;5.33;;;4.10;;
22080;SDS011;11207;59.512;18.050;2023-04-24T08:27:35;4.20;;;3.70;;
22080;SDS011;11207;59.512;18.050;2023-04-24T08:30:04;3.73;;;3.40;;
22080;SDS011;11207;59.512;18.050;2023-04-24T08:32:30;4.27;;;3.20;;
22080;SDS011;11207;59.512;18.050;2023-04-24T08:34:56;5.00;;;4.00;;
22080;SDS011;11207;59.512;18.050;2023-04-24T08:37:22;3.93;;;3.63;;
22080;SDS011;11207;59.512;18.050;2023-04-24T08:39:49;8.17;;;3.93;;
22080;SDS011;11207;59.512;18.050;2023-04-24T08:42:15;5.90;;;3.63;;
22080;SDS011;11207;59.512;18.050;2023-04-24T08:44:42;3.93;;;3.37;;
22080;SDS011;11207;59.512;18.050;2023-04-24T08:47:09;5.80;;;4.20;;
22080;SDS011;11207;59.512;18.050;2023-04-24T08:49:36;3.23;;;3.03;;
22080;SDS011;11207;59.512;18.050;2023-04-24T08:52:03;4.90;;;3.33;;
22080;SDS011;11207;59.512;18.050;2023-04-24T08:54:30;3.60;;;3.30;;
22080;SDS011;11207;59.512;18.050;2023-04-24T08:57:00;4.47;;;3.40;;
22080;SDS011;11207;59.512;18.050;2023-04-24T08:59:27;4.90;;;3.40;;
22080;SDS011;11207;59.512;18.050;2023-04-24T09:01:53;3.87;;;3.20;;
22080;SDS011;11207;59.512;18.050;2023-04-24T09:04:20;4.07;;;3.43;;
22080;SDS011;11207;59.512;18.050;2023-04-24T09:06:49;4.90;;;3.77;;
22080;SDS011;11207;59.512;18.050;2023-04-24T09:09:22;3.60;;;3.30;;
22080;SDS011;11207;59.512;18.050;2023-04-24T09:11:50;3.87;;;3.23;;
22080;SDS011;11207;59.512;18.050;2023-04-24T09:14:18;3.70;;;3.30;;
22080;SDS011;11207;59.512;18.050;2023-04-24T09:16:44;3.73;;;3.43;;
22080;SDS011;11207;59.512;18.050;2023-04-24T09:19:10;3.30;;;3.03;;
22080;SDS011;11207;59.512;18.050;2023-04-24T09:21:36;4.03;;;3.70;;
22080;SDS011;11207;59.512;18.050;2023-04-24T09:24:03;4.80;;;3.37;;
22080;SDS011;11207;59.512;18.050;2023-04-24T09:26:31;4.20;;;3.37;;
22080;SDS011;11207;59.512;18.050;2023-04-24T09:28:57;3.87;;;3.47;;
22080;SDS011;11207;59.512;18.050;2023-04-24T09:31:24;3.70;;;3.40;;
22080;SDS011;11207;59.512;18.050;2023-04-24T09:34:03;4.40;;;3.60;;
22080;SDS011;11207;59.512;18.050;2023-04-24T09:36:33;3.40;;;3.20;;
22080;SDS011;11207;59.512;18.050;2023-04-24T09:39:10;3.90;;;3.50;;
22080;SDS011;11207;59.512;18.050;2023-04-24T09:44:17;5.20;;;3.80;;
22080;SDS011;11207;59.512;18.050;2023-04-24T09:46:50;3.60;;;3.30;;
22080;SDS011;11207;59.512;18.050;2023-04-24T09:49:20;3.70;;;3.27;;
22080;SDS011;11207;59.512;18.050;2023-04-24T09:51:49;4.40;;;3.33;;
22080;SDS011;11207;59.512;18.050;2023-04-24T09:54:20;5.10;;;3.13;;
22080;SDS011;11207;59.512;18.050;2023-04-24T09:56:49;3.80;;;3.40;;
22080;SDS011;11207;59.512;18.050;2023-04-24T09:59:19;4.03;;;3.63;;
22080;SDS011;11207;59.512;18.050;2023-04-24T10:01:45;3.30;;;3.00;;
22080;SDS011;11207;59.512;18.050;2023-04-24T10:04:25;3.27;;;3.03;;
22080;SDS011;11207;59.512;18.050;2023-04-24T10:06:53;3.33;;;3.03;;
22080;SDS011;11207;59.512;18.050;2023-04-24T10:09:22;3.40;;;3.10;;
22080;SDS011;11207;59.512;18.050;2023-04-24T10:11:50;3.87;;;3.50;;
22080;SDS011;11207;59.512;18.050;2023-04-24T10:14:17;3.67;;;3.37;;
22080;SDS011;11207;59.512;18.050;2023-04-24T10:16:46;3.50;;;3.20;;
22080;SDS011;11207;59.512;18.050;2023-04-24T10:19:14;5.77;;;3.43;;
22080;SDS011;11207;59.512;18.050;2023-04-24T10:21:41;3.37;;;3.10;;
22080;SDS011;11207;59.512;18.050;2023-04-24T10:24:11;4.07;;;3.10;;
22080;SDS011;11207;59.512;18.050;2023-04-24T10:26:39;3.27;;;3.03;;
22080;SDS011;11207;59.512;18.050;2023-04-24T10:29:06;3.57;;;3.30;;
22080;SDS011;11207;59.512;18.050;2023-04-24T10:31:34;3.20;;;3.00;;
22080;SDS011;11207;59.512;18.050;2023-04-24T10:34:01;3.07;;;2.87;;
22080;SDS011;11207;59.512;18.050;2023-04-24T10:36:28;3.37;;;3.10;;
22080;SDS011;11207;59.512;18.050;2023-04-24T10:38:57;3.60;;;3.30;;
22080;SDS011;11207;59.512;18.050;2023-04-24T10:41:26;2.90;;;2.70;;
22080;SDS011;11207;59.512;18.050;2023-04-24T10:44:07;2.93;;;2.73;;
22080;SDS011;11207;59.512;18.050;2023-04-24T10:46:34;3.20;;;2.90;;
22080;SDS011;11207;59.512;18.050;2023-04-24T10:49:03;5.00;;;3.00;;
22080;SDS011;11207;59.512;18.050;2023-04-24T10:54:42;5.57;;;3.20;;
22080;SDS011;11207;59.512;18.050;2023-04-24T10:59:52;4.40;;;3.10;;
22080;SDS011;11207;59.512;18.050;2023-04-24T11:02:35;5.07;;;3.30;;
22080;SDS011;11207;59.512;18.050;2023-04-24T11:05:03;3.47;;;3.17;;
22080;SDS011;11207;59.512;18.050;2023-04-24T11:07:29;3.83;;;3.50;;
22080;SDS011;11207;59.512;18.050;2023-04-24T11:09:58;4.00;;;3.60;;
22080;SDS011;11207;59.512;18.050;2023-04-24T11:12:25;3.17;;;2.97;;
22080;SDS011;11207;59.512;18.050;2023-04-24T11:17:31;3.97;;;3.47;;
22080;SDS011;11207;59.512;18.050;2023-04-24T11:20:09;3.47;;;3.17;;
22080;SDS011;11207;59.512;18.050;2023-04-24T11:22:37;4.33;;;3.20;;
22080;SDS011;11207;59.512;18.050;2023-04-24T11:25:05;3.47;;;3.17;;
22080;SDS011;11207;59.512;18.050;2023-04-24T11:27:41;3.40;;;3.10;;
22080;SDS011;11207;59.512;18.050;2023-04-24T11:30:09;6.10;;;3.23;;
22080;SDS011;11207;59.512;18.050;2023-04-24T11:32:41;4.67;;;3.40;;
22080;SDS011;11207;59.512;18.050;2023-04-24T11:35:17;4.07;;;3.07;;
22080;SDS011;11207;59.512;18.050;2023-04-24T11:37:45;3.33;;;3.13;;
22080;SDS011;11207;59.512;18.050;2023-04-24T11:40:13;4.77;;;2.97;;
22080;SDS011;11207;59.512;18.050;2023-04-24T11:42:45;3.33;;;3.03;;
22080;SDS011;11207;59.512;18.050;2023-04-24T11:45:17;3.47;;;3.27;;
22080;SDS011;11207;59.512;18.050;2023-04-24T11:47:48;3.73;;;3.43;;
22080;SDS011;11207;59.512;18.050;2023-04-24T11:50:17;3.40;;;3.10;;
22080;SDS011;11207;59.512;18.050;2023-04-24T11:52:44;3.60;;;3.30;;
22080;SDS011;11207;59.512;18.050;2023-04-24T11:57:52;3.40;;;3.17;;
22080;SDS011;11207;59.512;18.050;2023-04-24T12:00:31;3.57;;;3.27;;
22080;SDS011;11207;59.512;18.050;2023-04-24T12:03:04;3.97;;;3.53;;
22080;SDS011;11207;59.512;18.050;2023-04-24T12:05:34;4.00;;;3.40;;
22080;SDS011;11207;59.512;18.050;2023-04-24T12:08:00;3.37;;;3.00;;
22080;SDS011;11207;59.512;18.050;2023-04-24T12:10:26;3.90;;;3.50;;
22080;SDS011;11207;59.512;18.050;2023-04-24T12:12:53;3.40;;;3.10;;
22080;SDS011;11207;59.512;18.050;2023-04-24T12:15:21;3.63;;;3.33;;
22080;SDS011;11207;59.512;18.050;2023-04-24T12:17:47;3.70;;;3.40;;
22080;SDS011;11207;59.512;18.050;2023-04-24T12:20:15;3.47;;;3.17;;
22080;SDS011;11207;59.512;18.050;2023-04-24T12:25:13;3.50;;;3.20;;
22080;SDS011;11207;59.512;18.050;2023-04-24T12:27:39;5.10;;;3.90;;
22080;SDS011;11207;59.512;18.050;2023-04-24T12:30:05;5.00;;;3.37;;
22080;SDS011;11207;59.512;18.050;2023-04-24T12:32:40;3.93;;;3.53;;
22080;SDS011;11207;59.512;18.050;2023-04-24T12:35:06;5.10;;;3.73;;
22080;SDS011;11207;59.512;18.050;2023-04-24T12:37:32;3.93;;;3.63;;
22080;SDS011;11207;59.512;18.050;2023-04-24T12:42:44;4.50;;;3.57;;
22080;SDS011;11207;59.512;18.050;2023-04-24T12:45:15;7.23;;;4.40;;
22080;SDS011;11207;59.512;18.050;2023-04-24T12:47:45;5.27;;;3.93;;
22080;SDS011;11207;59.512;18.050;2023-04-24T12:50:14;4.50;;;4.10;;
22080;SDS011;11207;59.512;18.050;2023-04-24T12:52:56;4.40;;;4.00;;
22080;SDS011;11207;59.512;18.050;2023-04-24T12:55:22;4.67;;;3.97;;
22080;SDS011;11207;59.512;18.050;2023-04-24T12:57:48;5.50;;;4.00;;
22080;SDS011;11207;59.512;18.050;2023-04-24T13:00:13;4.97;;;4.13;;
22080;SDS011;11207;59.512;18.050;2023-04-24T13:02:41;6.33;;;4.20;;
22080;SDS011;11207;59.512;18.050;2023-04-24T13:05:08;6.57;;;3.97;;
22080;SDS011;11207;59.512;18.050;2023-04-24T13:07:34;4.67;;;3.90;;
22080;SDS011;11207;59.512;18.050;2023-04-24T13:09:59;7.27;;;4.33;;
22080;SDS011;11207;59.512;18.050;2023-04-24T13:12:25;5.60;;;4.70;;
22080;SDS011;11207;59.512;18.050;2023-04-24T13:14:51;7.37;;;4.50;;
22080;SDS011;11207;59.512;18.050;2023-04-24T13:17:17;6.80;;;4.77;;
22080;SDS011;11207;59.512;18.050;2023-04-24T13:19:43;4.90;;;4.40;;
22080;SDS011;11207;59.512;18.050;2023-04-24T13:22:10;6.80;;;4.67;;
22080;SDS011;11207;59.512;18.050;2023-04-24T13:24:37;4.97;;;4.47;;
22080;SDS011;11207;59.512;18.050;2023-04-24T13:27:04;7.13;;;4.63;;
22080;SDS011;11207;59.512;18.050;2023-04-24T13:29:30;5.93;;;4.13;;
22080;SDS011;11207;59.512;18.050;2023-04-24T13:31:56;4.30;;;3.90;;
22080;SDS011;11207;59.512;18.050;2023-04-24T13:34:22;5.73;;;4.17;;
22080;SDS011;11207;59.512;18.050;2023-04-24T13:36:50;5.73;;;4.30;;
22080;SDS011;11207;59.512;18.050;2023-04-24T13:39:16;4.97;;;4.27;;
22080;SDS011;11207;59.512;18.050;2023-04-24T13:41:42;8.90;;;4.93;;
22080;SDS011;11207;59.512;18.050;2023-04-24T13:44:08;8.50;;;4.63;;
22080;SDS011;11207;59.512;18.050;2023-04-24T13:46:33;6.87;;;4.07;;
22080;SDS011;11207;59.512;18.050;2023-04-24T13:48:59;6.20;;;4.10;;
22080;SDS011;11207;59.512;18.050;2023-04-24T13:51:26;4.50;;;4.10;;
22080;SDS011;11207;59.512;18.050;2023-04-24T13:53:52;4.73;;;4.20;;
22080;SDS011;11207;59.512;18.050;2023-04-24T13:56:18;6.50;;;3.90;;
22080;SDS011;11207;59.512;18.050;2023-04-24T13:58:45;4.97;;;4.30;;
22080;SDS011;11207;59.512;18.050;2023-04-24T14:01:11;6.50;;;4.13;;
22080;SDS011;11207;59.512;18.050;2023-04-24T14:03:37;5.67;;;4.47;;
22080;SDS011;11207;59.512;18.050;2023-04-24T14:06:04;5.93;;;5.00;;
22080;SDS011;11207;59.512;18.050;2023-04-24T14:08:31;5.57;;;4.33;;
22080;SDS011;11207;59.512;18.050;2023-04-24T14:10:57;4.30;;;3.90;;
22080;SDS011;11207;59.512;18.050;2023-04-24T14:13:22;5.53;;;4.50;;
22080;SDS011;11207;59.512;18.050;2023-04-24T14:15:48;6.33;;;4.70;;
22080;SDS011;11207;59.512;18.050;2023-04-24T14:18:14;8.27;;;5.10;;
22080;SDS011;11207;59.512;18.050;2023-04-24T14:20:40;6.27;;;4.60;;
22080;SDS011;11207;59.512;18.050;2023-04-24T14:23:07;4.93;;;4.30;;
22080;SDS011;11207;59.512;18.050;2023-04-24T14:25:33;6.63;;;5.03;;
22080;SDS011;11207;59.512;18.050;2023-04-24T14:27:58;9.27;;;4.80;;
22080;SDS011;11207;59.512;18.050;2023-04-24T14:30:24;6.23;;;4.50;;
22080;SDS011;11207;59.512;18.050;2023-04-24T14:32:50;10.17;;;5.20;;
22080;SDS011;11207;59.512;18.050;2023-04-24T14:35:16;6.17;;;4.80;;
22080;SDS011;11207;59.512;18.050;2023-04-24T14:37:41;8.27;;;5.07;;
22080;SDS011;11207;59.512;18.050;2023-04-24T14:40:08;5.70;;;4.67;;
22080;SDS011;11207;59.512;18.050;2023-04-24T14:42:34;6.60;;;4.53;;
22080;SDS011;11207;59.512;18.050;2023-04-24T14:45:00;6.73;;;4.90;;
22080;SDS011;11207;59.512;18.050;2023-04-24T14:47:26;5.47;;;4.60;;
22080;SDS011;11207;59.512;18.050;2023-04-24T14:49:52;6.77;;;4.60;;